Time;durP1;ratioP1;P1;durP2;ratioP2;P2;SDS_P1;SDS_P2;PMS_P1;PMS_P2;Temp;Humidity;BMP_temperature;BMP_pressure;BME280_temperature;BME280_humidity;BME280_pressure;Samples;Min_cycle;Max_cycle;Signal;HPM_P1;HPM_P2
2023/03/03 00:00:48;;;;;;;24.70;20.20;;;;;;;;;;103095;1331;41133;-29
2023/03/03 00:03:26;;;;;;;23.60;20.30;;;;;;;;;;102896;1334;44452;-29
2023/03/03 00:05:56;;;;;;;22.70;19.40;;;;;;;;;;102781;1332;43229;-29
2023/03/03 00:08:28;;;;;;;22.20;19.20;;;;;;;;;;102782;1333;39723;-29
2023/03/03 00:11:02;;;;;;;23.40;19.80;;;;;;;;;;102801;1339;41312;-29
2023/03/03 00:13:40;;;;;;;23.20;19.90;;;;;;;;;;102911;1330;44302;-29
2023/03/03 00:16:25;;;;;;;22.70;19.40;;;;;;;;;;103137;1331;43093;-29
2023/03/03 00:18:58;;;;;;;22.30;19.20;;;;;;;;;;103117;1331;39547;-29
2023/03/03 00:21:41;;;;;;;22.90;19.40;;;;;;;;;;103117;1337;41586;-29
2023/03/03 00:24:22;;;;;;;21.60;18.80;;;;;;;;;;102741;1334;44403;-29
2023/03/03 00:26:54;;;;;;;22.60;18.80;;;;;;;;;;102772;1332;43049;-29
2023/03/03 00:29:36;;;;;;;22.40;18.70;;;;;;;;;;102700;1334;175401;-29
2023/03/03 00:32:25;;;;;;;22.50;19.20;;;;;;;;;;102797;1333;41382;-29
2023/03/03 00:35:02;;;;;;;22.00;19.10;;;;;;;;;;102910;1330;44432;-29
2023/03/03 00:37:38;;;;;;;21.60;18.30;;;;;;;;;;102765;1334;43386;-29
2023/03/03 00:40:27;;;;;;;22.20;19.00;;;;;;;;;;102821;1334;39620;-30
2023/03/03 00:43:11;;;;;;;20.50;17.80;;;;;;;;;;102832;1332;41099;-31
2023/03/03 00:45:46;;;;;;;20.70;17.60;;;;;;;;;;103098;1329;52821;-30
2023/03/03 00:48:25;;;;;;;20.50;18.00;;;;;;;;;;103121;1329;42797;-30
2023/03/03 00:50:57;;;;;;;21.00;17.60;;;;;;;;;;103101;1329;39420;-30
2023/03/03 00:53:31;;;;;;;20.60;17.70;;;;;;;;;;103050;1331;41106;-30
2023/03/03 00:56:04;;;;;;;;;;;;;;;;;;102856;1333;44483;-30
2023/03/03 00:58:35;;;;;;;20.50;16.90;;;;;;;;;;102796;1333;42431;-30
2023/03/03 01:01:05;;;;;;;19.40;16.80;;;;;;;;;;102819;1334;39810;-30
2023/03/03 01:03:36;;;;;;;20.10;16.80;;;;;;;;;;102790;1331;41368;-30
2023/03/03 01:06:09;;;;;;;19.90;17.30;;;;;;;;;;102812;1331;44334;-30
2023/03/03 01:08:41;;;;;;;19.40;17.00;;;;;;;;;;103056;1329;43208;-30
2023/03/03 01:11:15;;;;;;;19.00;16.60;;;;;;;;;;103092;1331;39552;-30
2023/03/03 01:13:50;;;;;;;18.90;16.30;;;;;;;;;;103054;1331;43544;-30
2023/03/03 01:16:23;;;;;;;19.50;16.70;;;;;;;;;;102653;1333;175807;-30
2023/03/03 01:18:56;;;;;;;19.60;16.70;;;;;;;;;;102800;1333;43179;-30
2023/03/03 01:21:27;;;;;;;18.80;16.20;;;;;;;;;;102810;1332;39344;-29
2023/03/03 01:23:57;;;;;;;19.60;16.30;;;;;;;;;;102807;1333;41556;-29
2023/03/03 01:26:27;;;;;;;19.60;16.70;;;;;;;;;;103104;1330;44441;-29
2023/03/03 01:28:59;;;;;;;19.10;16.70;;;;;;;;;;103109;1331;42998;-29
2023/03/03 01:31:29;;;;;;;19.20;16.40;;;;;;;;;;103087;1331;38608;-29
2023/03/03 01:34:03;;;;;;;17.80;15.40;;;;;;;;;;103104;1331;41435;-29
2023/03/03 01:36:36;;;;;;;17.80;15.50;;;;;;;;;;102947;1333;51271;-29
2023/03/03 01:39:06;;;;;;;18.40;15.50;;;;;;;;;;102826;1334;42928;-29
2023/03/03 01:41:36;;;;;;;17.90;15.70;;;;;;;;;;102822;1334;39618;-29
2023/03/03 01:44:11;;;;;;;18.20;15.60;;;;;;;;;;102793;1337;40783;-29
2023/03/03 01:46:56;;;;;;;18.80;15.50;;;;;;;;;;102747;1334;44532;-29
2023/03/03 01:49:30;;;;;;;18.90;15.70;;;;;;;;;;102822;1333;44426;-29
2023/03/03 01:52:04;;;;;;;17.60;15.10;;;;;;;;;;102796;1334;39515;-29
2023/03/03 01:54:42;;;;;;;17.00;14.80;;;;;;;;;;102799;1333;42752;-29
2023/03/03 01:57:21;;;;;;;18.10;15.30;;;;;;;;;;103089;1331;50185;-29
2023/03/03 01:59:56;;;;;;;16.70;14.60;;;;;;;;;;102999;1331;175823;-29
2023/03/03 02:02:31;;;;;;;17.70;14.90;;;;;;;;;;103071;1331;40944;-29
2023/03/03 02:05:04;;;;;;;16.70;14.40;;;;;;;;;;103024;1331;41403;-29
2023/03/03 02:07:36;;;;;;;17.20;15.40;;;;;;;;;;102729;1334;175813;-29
2023/03/03 02:10:11;;;;;;;17.00;15.00;;;;;;;;;;102789;1333;45230;-29
2023/03/03 02:12:45;;;;;;;16.50;14.30;;;;;;;;;;102833;1333;39627;-29
2023/03/03 02:15:24;;;;;;;17.20;14.60;;;;;;;;;;102808;1331;41117;-29
2023/03/03 02:17:59;;;;;;;17.10;14.80;;;;;;;;;;103127;1329;44310;-29
2023/03/03 02:20:45;;;;;;;17.10;14.70;;;;;;;;;;103112;1330;45794;-29
2023/03/03 02:23:24;;;;;;;17.00;14.60;;;;;;;;;;103103;1329;39686;-29
2023/03/03 02:26:16;;;;;;;16.00;14.10;;;;;;;;;;102995;1330;41282;-29
2023/03/03 02:28:46;;;;;;;16.50;14.00;;;;;;;;;;102822;1334;44560;-29
2023/03/03 02:31:22;;;;;;;16.20;14.50;;;;;;;;;;102804;1333;43197;-29
2023/03/03 02:33:57;;;;;;;16.90;14.50;;;;;;;;;;102830;1333;39903;-29
2023/03/03 02:36:30;;;;;;;17.00;14.70;;;;;;;;;;102922;1330;41510;-29
2023/03/03 02:39:08;;;;;;;15.10;13.40;;;;;;;;;;103119;1345;45673;-29
2023/03/03 02:41:44;;;;;;;16.50;14.40;;;;;;;;;;103190;1329;43173;-29
2023/03/03 02:44:22;;;;;;;15.80;13.50;;;;;;;;;;103127;1331;40844;-29
2023/03/03 02:46:54;;;;;;;15.60;13.80;;;;;;;;;;102772;1335;41966;-29
2023/03/03 02:49:26;;;;;;;16.90;13.80;;;;;;;;;;102820;1333;45369;-29
2023/03/03 02:51:57;;;;;;;16.40;14.10;;;;;;;;;;102792;1333;43332;-29
2023/03/03 02:54:30;;;;;;;16.50;13.80;;;;;;;;;;102834;1334;39669;-29
2023/03/03 02:57:01;;;;;;;15.60;13.70;;;;;;;;;;102922;1329;41349;-29
2023/03/03 02:59:40;;;;;;;15.50;13.60;;;;;;;;;;103131;1331;44454;-29
2023/03/03 03:02:10;;;;;;;16.70;13.60;;;;;;;;;;103106;1329;43000;-29
2023/03/03 03:04:41;;;;;;;15.80;13.60;;;;;;;;;;103102;1331;40010;-29
2023/03/03 03:07:13;;;;;;;15.20;13.40;;;;;;;;;;102931;1332;41223;-29
2023/03/03 03:09:46;;;;;;;16.20;13.50;;;;;;;;;;102820;1333;44370;-29
2023/03/03 03:12:18;;;;;;;15.90;13.30;;;;;;;;;;102834;1334;43510;-29
2023/03/03 03:14:48;;;;;;;16.80;13.80;;;;;;;;;;102839;1334;39769;-29
2023/03/03 03:17:22;;;;;;;15.20;13.30;;;;;;;;;;102928;1331;41299;-29
2023/03/03 03:19:52;;;;;;;15.80;12.90;;;;;;;;;;103107;1330;44411;-29
2023/03/03 03:22:25;;;;;;;16.70;13.90;;;;;;;;;;103108;1330;43137;-29
2023/03/03 03:24:56;;;;;;;15.10;13.20;;;;;;;;;;103124;1331;39642;-29
2023/03/03 03:27:29;;;;;;;15.40;12.70;;;;;;;;;;102925;1331;41282;-29
2023/03/03 03:30:02;;;;;;;15.90;13.30;;;;;;;;;;102799;1333;44417;-29
2023/03/03 03:32:35;;;;;;;15.00;12.90;;;;;;;;;;102797;1334;44225;-29
2023/03/03 03:35:10;;;;;;;15.30;12.90;;;;;;;;;;102796;1333;39500;-29
2023/03/03 03:37:42;;;;;;;16.00;13.30;;;;;;;;;;102972;1331;41369;-29
2023/03/03 03:40:13;;;;;;;;;;;;;;;;;;103168;1331;45653;-29
2023/03/03 03:42:43;;;;;;;14.90;12.60;;;;;;;;;;103144;1331;42303;-29
2023/03/03 03:45:15;;;;;;;14.90;12.80;;;;;;;;;;103136;1331;39533;-29
2023/03/03 03:47:45;;;;;;;15.40;12.60;;;;;;;;;;102964;1331;41085;-29
2023/03/03 03:50:15;;;;;;;15.10;13.10;;;;;;;;;;102826;1334;44756;-29
2023/03/03 03:52:46;;;;;;;15.40;13.00;;;;;;;;;;102829;1334;43633;-29
2023/03/03 03:55:16;;;;;;;16.30;12.80;;;;;;;;;;102827;1334;39559;-29
2023/03/03 03:57:46;;;;;;;15.50;13.10;;;;;;;;;;102877;1331;41261;-29
2023/03/03 04:00:20;;;;;;;14.50;12.50;;;;;;;;;;103100;1331;44313;-29
2023/03/03 04:02:56;;;;;;;14.60;12.60;;;;;;;;;;103128;1331;44526;-29
2023/03/03 04:05:26;;;;;;;14.40;12.50;;;;;;;;;;103099;1329;39656;-29
2023/03/03 04:07:59;;;;;;;15.60;13.20;;;;;;;;;;102984;1331;41498;-29
2023/03/03 04:10:33;;;;;;;14.20;12.60;;;;;;;;;;102807;1334;44258;-29
2023/03/03 04:13:05;;;;;;;16.00;13.20;;;;;;;;;;102808;1334;43104;-29
2023/03/03 04:15:41;;;;;;;15.60;12.70;;;;;;;;;;102755;1341;39650;-29
2023/03/03 04:18:14;;;;;;;15.00;13.00;;;;;;;;;;102873;1330;41507;-29
2023/03/03 04:20:44;;;;;;;15.00;12.50;;;;;;;;;;103072;1331;43860;-29
2023/03/03 04:23:21;;;;;;;14.90;12.90;;;;;;;;;;103085;1331;44274;-29
2023/03/03 04:25:53;;;;;;;15.00;12.60;;;;;;;;;;103087;1331;39686;-29
2023/03/03 04:28:27;;;;;;;13.90;11.80;;;;;;;;;;102966;1331;41014;-29
2023/03/03 04:30:58;;;;;;;14.70;12.70;;;;;;;;;;102761;1334;44299;-29
2023/03/03 04:33:28;;;;;;;15.20;12.40;;;;;;;;;;102795;1333;43133;-29
2023/03/03 04:36:01;;;;;;;15.70;12.40;;;;;;;;;;102777;1333;39606;-29
2023/03/03 04:38:34;;;;;;;14.40;12.40;;;;;;;;;;102889;1331;41218;-29
2023/03/03 04:41:05;;;;;;;14.20;12.30;;;;;;;;;;103058;1331;44387;-29
2023/03/03 04:43:35;;;;;;;13.70;11.80;;;;;;;;;;103054;1329;43106;-29
2023/03/03 04:46:06;;;;;;;14.20;11.90;;;;;;;;;;103068;1329;38635;-28
2023/03/03 04:48:37;;;;;;;15.40;12.50;;;;;;;;;;102974;1331;41334;-28
2023/03/03 04:51:08;;;;;;;14.50;12.10;;;;;;;;;;102811;1334;44397;-28
2023/03/03 04:53:39;;;;;;;14.30;12.70;;;;;;;;;;102802;1334;43134;-28
2023/03/03 04:56:14;;;;;;;14.70;12.00;;;;;;;;;;102794;1334;39580;-28
2023/03/03 04:58:56;;;;;;;14.50;12.30;;;;;;;;;;102837;1331;41069;-28
2023/03/03 05:01:26;;;;;;;14.60;12.20;;;;;;;;;;102976;1331;175814;-28
2023/03/03 05:03:57;;;;;;;14.60;12.40;;;;;;;;;;103068;1331;43132;-28
2023/03/03 05:06:34;;;;;;;15.10;12.80;;;;;;;;;;103050;1331;39603;-28
2023/03/03 05:09:05;;;;;;;15.20;12.70;;;;;;;;;;102781;1332;41331;-28
2023/03/03 05:11:35;;;;;;;16.20;13.40;;;;;;;;;;102733;1333;46535;-28
2023/03/03 05:14:07;;;;;;;16.30;13.50;;;;;;;;;;102798;1335;42987;-28
2023/03/03 05:16:39;;;;;;;15.60;12.90;;;;;;;;;;102796;1333;39772;-28
2023/03/03 05:19:15;;;;;;;16.00;13.20;;;;;;;;;;102849;1331;41644;-28
2023/03/03 05:21:46;;;;;;;15.80;13.80;;;;;;;;;;103133;1329;45585;-28
2023/03/03 05:24:16;;;;;;;17.40;13.90;;;;;;;;;;103111;1330;44378;-28
2023/03/03 05:26:48;;;;;;;16.20;13.40;;;;;;;;;;102945;1331;175446;-28
2023/03/03 05:29:20;;;;;;;16.50;13.60;;;;;;;;;;103003;1331;41551;-28
2023/03/03 05:31:53;;;;;;;15.50;13.60;;;;;;;;;;102788;1333;44514;-28
2023/03/03 05:34:26;;;;;;;16.50;13.80;;;;;;;;;;102816;1333;43075;-28
2023/03/03 05:37:02;;;;;;;16.70;14.00;;;;;;;;;;102840;1333;39829;-28
2023/03/03 05:39:35;;;;;;;15.90;13.60;;;;;;;;;;102817;1331;41408;-28
2023/03/03 05:42:06;;;;;;;16.50;13.90;;;;;;;;;;103066;1331;44253;-28
2023/03/03 05:44:37;;;;;;;16.40;13.90;;;;;;;;;;103139;1331;43126;-28
2023/03/03 05:47:15;;;;;;;17.30;14.30;;;;;;;;;;103091;1330;39480;-28
2023/03/03 05:49:48;;;;;;;16.10;14.00;;;;;;;;;;102965;1333;41209;-28
2023/03/03 05:52:23;;;;;;;16.80;14.20;;;;;;;;;;102787;1333;44252;-28
2023/03/03 05:54:53;;;;;;;17.60;14.90;;;;;;;;;;102779;1334;43137;-28
2023/03/03 05:57:23;;;;;;;17.90;14.90;;;;;;;;;;102825;1334;39482;-28
2023/03/03 05:59:56;;;;;;;17.10;14.50;;;;;;;;;;102789;1330;44270;-28
2023/03/03 06:02:34;;;;;;;18.40;15.40;;;;;;;;;;103088;1331;44324;-28
2023/03/03 06:05:05;;;;;;;18.20;15.30;;;;;;;;;;102979;1331;175429;-28
2023/03/03 06:07:36;;;;;;;18.60;15.40;;;;;;;;;;103057;1330;39926;-28
2023/03/03 06:10:11;;;;;;;17.60;14.40;;;;;;;;;;102879;1331;175451;-28
2023/03/03 06:12:41;;;;;;;17.50;15.30;;;;;;;;;;102776;1334;44505;-28
2023/03/03 06:15:12;;;;;;;19.80;15.50;;;;;;;;;;102497;1333;425017;-28
2023/03/03 06:17:42;;;;;;;18.40;15.60;;;;;;;;;;102840;1333;39693;-28
2023/03/03 06:20:15;;;;;;;18.70;15.30;;;;;;;;;;102824;1329;40931;-28
2023/03/03 06:22:45;;;;;;;19.30;15.60;;;;;;;;;;103092;1330;44329;-28
2023/03/03 06:25:18;;;;;;;20.10;16.40;;;;;;;;;;103047;1329;43016;-28
2023/03/03 06:27:51;;;;;;;19.50;16.00;;;;;;;;;;103053;1330;39648;-28
2023/03/03 06:30:25;;;;;;;20.90;16.70;;;;;;;;;;103028;1331;41422;-28
2023/03/03 06:32:56;;;;;;;19.20;16.20;;;;;;;;;;102846;1334;44521;-28
2023/03/03 06:35:26;;;;;;;18.90;15.60;;;;;;;;;;102795;1332;44272;-28
2023/03/03 06:37:56;;;;;;;19.30;16.10;;;;;;;;;;102798;1333;38324;-28
2023/03/03 06:40:28;;;;;;;19.10;15.80;;;;;;;;;;102799;1331;40978;-28
2023/03/03 06:43:04;;;;;;;19.20;15.90;;;;;;;;;;103089;1330;44429;-28
2023/03/03 06:45:34;;;;;;;19.20;15.80;;;;;;;;;;103050;1333;44332;-28
2023/03/03 06:48:06;;;;;;;19.10;15.80;;;;;;;;;;103087;1329;40920;-28
2023/03/03 06:50:38;;;;;;;19.20;15.60;;;;;;;;;;103067;1331;42479;-28
2023/03/03 06:53:13;;;;;;;;;;;;;;;;;;103313;1328;50899;-28
2023/03/03 06:55:46;;;;;;;19.10;15.20;;;;;;;;;;103290;1337;42543;-28
2023/03/03 06:58:22;;;;;;;18.40;15.40;;;;;;;;;;103309;1328;42143;-28
2023/03/03 07:01:00;;;;;;;18.00;15.40;;;;;;;;;;103230;1328;41317;-29
2023/03/03 07:03:40;;;;;;;18.20;14.90;;;;;;;;;;102793;1341;51553;-29
2023/03/03 07:06:23;;;;;;;17.50;14.70;;;;;;;;;;102844;1333;44408;-29
2023/03/03 07:08:56;;;;;;;18.80;15.40;;;;;;;;;;102825;1334;39390;-29
2023/03/03 07:11:26;;;;;;;19.00;15.20;;;;;;;;;;102817;1328;41221;-29
2023/03/03 07:13:59;;;;;;;18.20;14.50;;;;;;;;;;103280;1328;44413;-29
2023/03/03 07:16:31;;;;;;;17.40;15.00;;;;;;;;;;103300;1328;42995;-29
2023/03/03 07:19:09;;;;;;;16.90;14.30;;;;;;;;;;103275;1328;39469;-29
2023/03/03 07:21:43;;;;;;;17.20;14.20;;;;;;;;;;103227;1328;41228;-29
2023/03/03 07:24:26;;;;;;;17.40;13.90;;;;;;;;;;102791;1334;44555;-29
2023/03/03 07:27:17;;;;;;;18.60;14.70;;;;;;;;;;102834;1334;43097;-29
2023/03/03 07:29:50;;;;;;;16.70;13.80;;;;;;;;;;102819;1334;39537;-29
2023/03/03 07:32:28;;;;;;;17.10;14.10;;;;;;;;;;102892;1327;41521;-29
2023/03/03 07:35:00;;;;;;;16.50;14.20;;;;;;;;;;103304;1328;44312;-29
2023/03/03 07:37:37;;;;;;;18.10;13.70;;;;;;;;;;103311;1327;42994;-29
2023/03/03 07:40:35;;;;;;;17.80;14.10;;;;;;;;;;103314;1328;39507;-29
2023/03/03 07:43:34;;;;;;;17.80;13.90;;;;;;;;;;102929;1332;41188;-29
2023/03/03 07:46:31;;;;;;;18.50;14.70;;;;;;;;;;102807;1334;44707;-29
2023/03/03 07:49:02;;;;;;;16.40;13.60;;;;;;;;;;102824;1334;44995;-29
2023/03/03 07:51:40;;;;;;;17.60;13.70;;;;;;;;;;102789;1334;40918;-29
2023/03/03 07:54:31;;;;;;;16.60;13.20;;;;;;;;;;103209;1327;41825;-29
2023/03/03 07:57:17;;;;;;;15.60;12.80;;;;;;;;;;103306;1327;44197;-29
2023/03/03 07:59:50;;;;;;;16.40;13.40;;;;;;;;;;103289;1328;43276;-29
2023/03/03 08:02:40;;;;;;;16.70;13.20;;;;;;;;;;103205;1328;39633;-29
2023/03/03 08:05:37;;;;;;;16.00;13.10;;;;;;;;;;102787;1333;42840;-29
2023/03/03 08:08:35;;;;;;;15.50;12.60;;;;;;;;;;102154;1334;917053;-29
2023/03/03 08:11:08;;;;;;;16.30;13.00;;;;;;;;;;102758;1333;175735;-29
2023/03/03 08:13:41;;;;;;;16.50;13.10;;;;;;;;;;103055;1327;39708;-29
2023/03/03 08:16:34;;;;;;;16.40;13.10;;;;;;;;;;103301;1328;41219;-29
2023/03/03 08:19:05;;;;;;;;;;;;;;;;;;103205;1337;45618;-28
2023/03/03 08:21:35;;;;;;;18.90;14.40;;;;;;;;;;103274;1327;42559;-29
2023/03/03 08:24:15;;;;;;;19.60;14.80;;;;;;;;;;102940;1328;39699;-29
2023/03/03 08:26:55;;;;;;;20.50;15.00;;;;;;;;;;102822;1333;41215;-30
2023/03/03 08:29:25;;;;;;;19.50;14.70;;;;;;;;;;102791;1333;45623;-29
2023/03/03 08:31:55;;;;;;;18.40;14.90;;;;;;;;;;102809;1334;42631;-29
2023/03/03 08:34:28;;;;;;;18.60;15.00;;;;;;;;;;103114;1327;39547;-29
2023/03/03 08:37:04;;;;;;;21.10;16.20;;;;;;;;;;103287;1327;41128;-30
2023/03/03 08:39:43;;;;;;;23.10;16.90;;;;;;;;;;103221;1328;176370;-29
2023/03/03 08:42:13;;;;;;;18.60;14.40;;;;;;;;;;103257;1328;44528;-30
2023/03/03 08:44:45;;;;;;;18.20;13.80;;;;;;;;;;102869;1333;40872;-32
2023/03/03 08:47:22;;;;;;;17.40;13.80;;;;;;;;;;103212;1328;41343;-31
2023/03/03 08:49:58;;;;;;;16.10;13.10;;;;;;;;;;103258;1328;44723;-32
2023/03/03 08:52:33;;;;;;;16.20;13.60;;;;;;;;;;102865;1328;43561;-32
2023/03/03 08:55:04;;;;;;;14.70;12.40;;;;;;;;;;102893;1334;39638;-31
2023/03/03 08:57:37;;;;;;;15.60;12.10;;;;;;;;;;102924;1328;41224;-30
2023/03/03 09:00:13;;;;;;;16.20;12.80;;;;;;;;;;103307;1327;45615;-30
2023/03/03 09:02:44;;;;;;;16.70;12.80;;;;;;;;;;103336;1327;44272;-31
2023/03/03 09:05:14;;;;;;;15.50;12.70;;;;;;;;;;103163;1327;40660;-32
2023/03/03 09:07:46;;;;;;;16.70;12.50;;;;;;;;;;103274;1327;41238;-32
2023/03/03 09:10:26;;;;;;;14.30;11.90;;;;;;;;;;103283;1327;44615;-32
2023/03/03 09:12:57;;;;;;;16.30;12.70;;;;;;;;;;103267;1327;43280;-33
2023/03/03 09:15:29;;;;;;;15.20;11.90;;;;;;;;;;102881;1331;40843;-32
2023/03/03 09:18:10;;;;;;;15.20;12.00;;;;;;;;;;103262;1327;41389;-31
2023/03/03 09:20:41;;;;;;;15.00;12.10;;;;;;;;;;103272;1327;44355;-32
2023/03/03 09:23:37;;;;;;;13.40;11.20;;;;;;;;;;103256;1327;42971;-31
2023/03/03 09:26:27;;;;;;;15.60;12.00;;;;;;;;;;102781;1333;39659;-31
2023/03/03 09:29:06;;;;;;;15.20;11.90;;;;;;;;;;103066;1330;41405;-32
2023/03/03 09:31:44;;;;;;;14.20;11.70;;;;;;;;;;103060;1331;44273;-31
2023/03/03 09:34:23;;;;;;;15.00;11.50;;;;;;;;;;103102;1328;42831;-31
2023/03/03 09:36:55;;;;;;;14.10;11.30;;;;;;;;;;103101;1331;39431;-31
2023/03/03 09:39:33;;;;;;;13.30;11.10;;;;;;;;;;103065;1331;41436;-31
2023/03/03 09:42:41;;;;;;;13.60;11.40;;;;;;;;;;103308;1328;44191;-31
2023/03/03 09:45:51;;;;;;;13.50;11.10;;;;;;;;;;103251;1328;43006;-31
2023/03/03 09:48:52;;;;;;;13.30;11.10;;;;;;;;;;103172;1327;175679;-31
2023/03/03 09:51:48;;;;;;;13.20;10.40;;;;;;;;;;103269;1327;41322;-31
2023/03/03 09:54:38;;;;;;;13.70;11.00;;;;;;;;;;103090;1327;44428;-31
2023/03/03 09:57:15;;;;;;;13.90;11.20;;;;;;;;;;102663;1333;49961;-31
2023/03/03 10:00:12;;;;;;;13.10;10.80;;;;;;;;;;102762;1334;39922;-31
2023/03/03 10:03:06;;;;;;;11.80;10.30;;;;;;;;;;102755;1334;42799;-31
2023/03/03 10:05:51;;;;;;;11.40;9.90;;;;;;;;;;102878;1328;44576;-31
2023/03/03 10:08:41;;;;;;;13.60;10.60;;;;;;;;;;103256;1327;43169;-31
2023/03/03 10:11:29;;;;;;;13.20;10.20;;;;;;;;;;103277;1328;39646;-31
2023/03/03 10:14:42;;;;;;;13.70;10.50;;;;;;;;;;103275;1328;41376;-31
2023/03/03 10:17:36;;;;;;;12.20;10.10;;;;;;;;;;103286;1327;45647;-31
2023/03/03 10:20:39;;;;;;;12.30;10.00;;;;;;;;;;103261;1328;43025;-31
2023/03/03 10:23:28;;;;;;;12.50;9.90;;;;;;;;;;103267;1327;39523;-31
2023/03/03 10:26:11;;;;;;;12.30;9.80;;;;;;;;;;103214;1328;41274;-31
2023/03/03 10:29:10;;;;;;;12.50;10.10;;;;;;;;;;103119;1331;44287;-31
2023/03/03 10:31:59;;;;;;;12.40;9.90;;;;;;;;;;102868;1331;43083;-31
2023/03/03 10:34:52;;;;;;;12.10;9.90;;;;;;;;;;103128;1331;39594;-30
2023/03/03 10:37:34;;;;;;;13.10;10.30;;;;;;;;;;102678;1336;41164;-31
2023/03/03 10:40:24;;;;;;;12.50;10.20;;;;;;;;;;102589;1335;44202;-31
2023/03/03 10:43:29;;;;;;;13.20;10.70;;;;;;;;;;102592;1334;43047;-31
2023/03/03 10:46:30;;;;;;;13.00;10.00;;;;;;;;;;102576;1334;39756;-31
2023/03/03 10:49:15;;;;;;;13.00;10.10;;;;;;;;;;102615;1335;42268;-31
2023/03/03 10:52:06;;;;;;;12.70;10.00;;;;;;;;;;102614;1337;46142;-31
2023/03/03 10:55:03;;;;;;;12.10;9.80;;;;;;;;;;102563;1334;42995;-31
2023/03/03 10:57:42;;;;;;;12.10;9.80;;;;;;;;;;102772;1333;39540;-31
2023/03/03 11:00:24;;;;;;;11.70;9.80;;;;;;;;;;102906;1331;41343;-31
2023/03/03 11:03:39;;;;;;;12.40;9.70;;;;;;;;;;102935;1331;44240;-31
2023/03/03 11:06:19;;;;;;;11.50;9.40;;;;;;;;;;102839;1331;43390;-31
2023/03/03 11:08:56;;;;;;;12.60;10.40;;;;;;;;;;102631;1334;46877;-31
2023/03/03 11:11:39;;;;;;;11.90;10.10;;;;;;;;;;102577;1335;41938;-31
2023/03/03 11:14:23;;;;;;;12.10;9.80;;;;;;;;;;102562;1335;44459;-30
2023/03/03 11:17:07;;;;;;;11.40;9.60;;;;;;;;;;102646;1334;43253;-30
2023/03/03 11:19:58;;;;;;;12.40;10.40;;;;;;;;;;102865;1331;39775;-31
2023/03/03 11:22:43;;;;;;;11.80;9.80;;;;;;;;;;102847;1331;41234;-30
2023/03/03 11:25:29;;;;;;;11.40;9.60;;;;;;;;;;102861;1331;44341;-30
2023/03/03 11:28:27;;;;;;;12.80;10.10;;;;;;;;;;102825;1333;44232;-31
2023/03/03 11:31:12;;;;;;;12.20;9.80;;;;;;;;;;102816;1333;41139;-32
2023/03/03 11:33:58;;;;;;;12.40;10.00;;;;;;;;;;102789;1333;41240;-31
2023/03/03 11:36:36;;;;;;;12.70;10.30;;;;;;;;;;102723;1334;45381;-31
2023/03/03 11:39:11;;;;;;;12.20;10.00;;;;;;;;;;102778;1331;43152;-31
2023/03/03 11:41:51;;;;;;;12.50;10.30;;;;;;;;;;102905;1330;39576;-31
2023/03/03 11:44:30;;;;;;;11.90;10.10;;;;;;;;;;102981;1331;41070;-31
2023/03/03 11:47:09;;;;;;;11.60;10.10;;;;;;;;;;103005;1330;44409;-31
2023/03/03 11:49:46;;;;;;;13.10;10.60;;;;;;;;;;102598;1334;50101;-31
2023/03/03 11:52:38;;;;;;;12.60;10.30;;;;;;;;;;102708;1334;39585;-31
2023/03/03 11:55:15;;;;;;;11.00;9.70;;;;;;;;;;102744;1340;41235;-32
2023/03/03 11:57:50;;;;;;;12.80;10.40;;;;;;;;;;102659;1331;44332;-32
2023/03/03 12:00:29;;;;;;;12.50;9.80;;;;;;;;;;102886;1331;45606;-32
2023/03/03 12:03:21;;;;;;;12.10;9.90;;;;;;;;;;102996;1331;39540;-32
2023/03/03 12:06:08;;;;;;;11.50;9.70;;;;;;;;;;102975;1330;41043;-31
2023/03/03 12:09:19;;;;;;;12.30;10.10;;;;;;;;;;102785;1334;44311;-31
2023/03/03 12:11:54;;;;;;;11.80;9.80;;;;;;;;;;102603;1334;43260;-31
2023/03/03 12:14:57;;;;;;;11.60;9.70;;;;;;;;;;101969;1334;897162;-32
2023/03/03 12:17:50;;;;;;;12.20;10.10;;;;;;;;;;102711;1334;41451;-31
2023/03/03 12:20:34;;;;;;;12.00;10.30;;;;;;;;;;102765;1334;52593;-32
2023/03/03 12:23:19;;;;;;;11.40;9.80;;;;;;;;;;102679;1334;43033;-32
2023/03/03 12:25:57;;;;;;;11.50;9.90;;;;;;;;;;102637;1333;40859;-33
2023/03/03 12:28:35;;;;;;;12.10;10.30;;;;;;;;;;102640;1333;41328;-31
2023/03/03 12:31:28;;;;;;;12.20;10.00;;;;;;;;;;102688;1333;45177;-31
2023/03/03 12:34:02;;;;;;;11.60;9.60;;;;;;;;;;102500;1334;175647;-31
2023/03/03 12:37:04;;;;;;;11.90;9.70;;;;;;;;;;102649;1343;39685;-31
2023/03/03 12:39:46;;;;;;;11.30;9.50;;;;;;;;;;102902;1331;41423;-32
2023/03/03 12:42:29;;;;;;;11.50;9.80;;;;;;;;;;102988;1331;44395;-31
2023/03/03 12:45:18;;;;;;;11.80;9.60;;;;;;;;;;103045;1331;44154;-31
2023/03/03 12:47:55;;;;;;;11.90;9.80;;;;;;;;;;102947;1331;40693;-31
2023/03/03 12:50:41;;;;;;;13.30;9.30;;;;;;;;;;102687;1331;41604;-31
2023/03/03 12:53:27;;;;;;;12.10;9.80;;;;;;;;;;102770;1333;44276;-30
2023/03/03 12:56:04;;;;;;;11.40;9.30;;;;;;;;;;102613;1333;43103;-30
2023/03/03 12:58:45;;;;;;;12.60;9.60;;;;;;;;;;102588;1334;175597;-31
2023/03/03 13:01:33;;;;;;;11.20;9.60;;;;;;;;;;102840;1333;47611;-31
2023/03/03 13:04:13;;;;;;;11.20;9.50;;;;;;;;;;102658;1334;44877;-31
2023/03/03 13:06:50;;;;;;;11.80;9.40;;;;;;;;;;102702;1336;43010;-31
2023/03/03 13:09:36;;;;;;;12.00;9.70;;;;;;;;;;102710;1334;39766;-31
2023/03/03 13:12:27;;;;;;;11.00;9.10;;;;;;;;;;102639;1334;41296;-31
2023/03/03 13:15:09;;;;;;;11.80;9.40;;;;;;;;;;102668;1335;44935;-31
2023/03/03 13:17:52;;;;;;;11.40;9.10;;;;;;;;;;102810;1334;43226;-32
2023/03/03 13:20:42;;;;;;;11.60;9.20;;;;;;;;;;102826;1332;40824;-32
2023/03/03 13:23:21;;;;;;;12.10;9.20;;;;;;;;;;102961;1331;41121;-33
2023/03/03 13:25:58;;;;;;;12.40;9.50;;;;;;;;;;102913;1330;45519;-32
2023/03/03 13:28:36;;;;;;;12.50;9.40;;;;;;;;;;102951;1331;43506;-30
2023/03/03 13:31:15;;;;;;;11.70;9.50;;;;;;;;;;102770;1333;39408;-31
2023/03/03 13:33:56;;;;;;;11.20;9.00;;;;;;;;;;102608;1334;41415;-31
2023/03/03 13:36:40;;;;;;;12.70;9.70;;;;;;;;;;102823;1344;44389;-31
2023/03/03 13:39:21;;;;;;;12.50;9.30;;;;;;;;;;102682;1335;42949;-32
2023/03/03 13:42:01;;;;;;;11.40;8.80;;;;;;;;;;102864;1327;192992;-31
2023/03/03 13:44:38;;;;;;;10.80;8.90;;;;;;;;;;102720;1334;41367;-31
2023/03/03 13:47:20;;;;;;;11.90;9.40;;;;;;;;;;102730;1332;44392;-32
2023/03/03 13:50:21;;;;;;;11.40;8.80;;;;;;;;;;102564;1334;43153;-32
2023/03/03 13:53:11;;;;;;;11.50;9.20;;;;;;;;;;103118;1330;46811;-32
2023/03/03 13:55:50;;;;;;;11.20;9.10;;;;;;;;;;102854;1331;41522;-32
2023/03/03 13:58:32;;;;;;;11.00;8.90;;;;;;;;;;102954;1330;44496;-32
2023/03/03 14:01:10;;;;;;;11.40;9.20;;;;;;;;;;102751;1337;43122;-33
2023/03/03 14:04:02;;;;;;;11.40;8.80;;;;;;;;;;102715;1334;39718;-32
2023/03/03 14:06:34;;;;;;;10.90;8.70;;;;;;;;;;102688;1334;42450;-32
2023/03/03 14:09:39;;;;;;;10.50;8.40;;;;;;;;;;102606;1336;46461;-32
2023/03/03 14:12:21;;;;;;;11.40;8.60;;;;;;;;;;102811;1331;44373;-32
2023/03/03 14:15:05;;;;;;;10.90;8.90;;;;;;;;;;102715;1341;318163;-32
2023/03/03 14:17:47;;;;;;;11.30;8.90;;;;;;;;;;103015;1330;41231;-32
2023/03/03 14:20:26;;;;;;;10.50;8.50;;;;;;;;;;102896;1331;45277;-32
2023/03/03 14:23:00;;;;;;;10.90;8.70;;;;;;;;;;102637;1334;43320;-32
2023/03/03 14:25:57;;;;;;;11.40;8.40;;;;;;;;;;102594;1334;39548;-32
2023/03/03 14:28:38;;;;;;;10.90;8.20;;;;;;;;;;102971;1331;41187;-32
2023/03/03 14:31:20;;;;;;;10.60;8.70;;;;;;;;;;102641;1331;44712;-32
2023/03/03 14:34:25;;;;;;;11.40;8.40;;;;;;;;;;102889;1331;48154;-32
2023/03/03 14:37:17;;;;;;;10.80;8.20;;;;;;;;;;102938;1331;40788;-32
2023/03/03 14:40:01;;;;;;;10.10;8.10;;;;;;;;;;103005;1328;41137;-32
2023/03/03 14:42:47;;;;;;;11.10;8.70;;;;;;;;;;103121;1327;44246;-32
2023/03/03 14:45:35;;;;;;;10.60;8.50;;;;;;;;;;103045;1331;42881;-32
2023/03/03 14:48:18;;;;;;;10.00;8.10;;;;;;;;;;103188;1328;39363;-32
2023/03/03 14:50:57;;;;;;;10.60;8.20;;;;;;;;;;103165;1327;41337;-32
2023/03/03 14:53:36;;;;;;;9.90;7.80;;;;;;;;;;102745;1328;44342;-32
2023/03/03 14:56:24;;;;;;;11.50;8.30;;;;;;;;;;102598;1334;175700;-32
2023/03/03 14:59:09;;;;;;;10.20;7.60;;;;;;;;;;102743;1334;41371;-32
2023/03/03 15:01:39;;;;;;;11.40;8.00;;;;;;;;;;102806;1333;41312;-32
2023/03/03 15:04:26;;;;;;;10.20;8.00;;;;;;;;;;103049;1328;45236;-32
2023/03/03 15:06:57;;;;;;;10.30;7.80;;;;;;;;;;103052;1327;44293;-32
2023/03/03 15:09:35;;;;;;;10.00;7.70;;;;;;;;;;102857;1333;39668;-32
2023/03/03 15:12:22;;;;;;;10.30;8.00;;;;;;;;;;102924;1328;42624;-32
2023/03/03 15:15:01;;;;;;;10.10;7.70;;;;;;;;;;103134;1330;53185;-32